Time;durP1;ratioP1;P1;durP2;ratioP2;P2;SDS_P1;SDS_P2;PMS_P1;PMS_P2;Temp;Humidity;BMP_temperature;BMP_pressure;BME280_temperature;BME280_humidity;BME280_pressure;Samples;Min_cycle;Max_cycle;Signal;HPM_P1;HPM_P2
2022/10/09 00:01:07;;;;;;;11.55;6.05;;;9.80;99.90;;;;;;5104479;28;20429;-73
2022/10/09 00:03:34;;;;;;;14.90;5.78;;;9.80;99.90;;;;;;5098918;28;20027;-73
2022/10/09 00:06:00;;;;;;;13.48;5.47;;;9.80;99.90;;;;;;5111079;28;20038;-73
2022/10/09 00:08:26;;;;;;;15.80;5.10;;;9.80;99.90;;;;;;5111645;28;20020;-73
2022/10/09 00:10:51;;;;;;;10.98;4.80;;;9.80;99.90;;;;;;5086036;28;20556;-73
2022/10/09 00:13:17;;;;;;;10.98;4.90;;;9.80;99.90;;;;;;5109313;28;20043;-73
2022/10/09 00:15:44;;;;;;;9.10;4.63;;;9.80;99.90;;;;;;5101911;28;20050;-73
2022/10/09 00:18:12;;;;;;;13.23;5.15;;;9.90;99.90;;;;;;5103069;28;20063;-74
2022/10/09 00:20:42;;;;;;;9.50;4.68;;;9.90;99.90;;;;;;5100537;28;20388;-73
2022/10/09 00:23:09;;;;;;;11.73;5.70;;;9.90;99.90;;;;;;5108723;28;20011;-72
2022/10/09 00:25:35;;;;;;;13.68;5.03;;;9.90;99.90;;;;;;5111518;28;20657;-73
2022/10/09 00:28:02;;;;;;;11.40;5.40;;;9.90;99.90;;;;;;5094357;28;20096;-74
2022/10/09 00:30:27;;;;;;;15.43;5.72;;;9.90;99.90;;;;;;5096585;28;20026;-74
2022/10/09 00:32:53;;;;;;;13.00;5.45;;;9.90;99.90;;;;;;5096021;28;20035;-73
2022/10/09 00:35:19;;;;;;;12.93;5.65;;;9.90;99.90;;;;;;5101929;28;20356;-73
2022/10/09 00:37:45;;;;;;;12.90;5.32;;;9.90;99.90;;;;;;5110872;28;20020;-73
2022/10/09 00:40:11;;;;;;;10.02;4.40;;;9.90;99.90;;;;;;5093136;28;20472;-73
2022/10/09 00:42:37;;;;;;;11.13;4.25;;;9.80;99.90;;;;;;5074490;28;20024;-73
2022/10/09 00:45:03;;;;;;;10.68;4.30;;;9.80;99.90;;;;;;5092773;28;20539;-73
2022/10/09 00:47:38;;;;;;;10.18;4.40;;;9.80;99.90;;;;;;5092526;28;20539;-73
2022/10/09 00:50:23;;;;;;;11.88;3.70;;;9.80;99.90;;;;;;5076344;28;20028;-73
2022/10/09 00:52:53;;;;;;;9.43;4.47;;;9.80;99.90;;;;;;5106866;28;20387;-73
2022/10/09 00:55:20;;;;;;;11.40;4.10;;;9.80;99.90;;;;;;5110952;28;20031;-73
2022/10/09 00:57:46;;;;;;;12.00;4.10;;;9.80;99.90;;;;;;5109140;28;20020;-74
2022/10/09 01:00:13;;;;;;;11.82;4.07;;;9.80;99.90;;;;;;5111297;28;20026;-73
2022/10/09 01:02:39;;;;;;;9.02;4.15;;;9.70;99.90;;;;;;5110814;28;20031;-73
2022/10/09 01:05:05;;;;;;;11.95;3.85;;;9.70;99.90;;;;;;5106368;28;20020;-73
2022/10/09 01:07:58;;;;;;;9.80;3.80;;;9.70;99.90;;;;;;5089397;28;20024;-73
2022/10/09 01:10:36;;;;;;;11.13;4.25;;;9.70;99.90;;;;;;5089703;28;20031;-73
2022/10/09 01:13:33;;;;;;;11.73;4.20;;;9.70;99.90;;;;;;5090249;28;20103;-73
2022/10/09 01:16:42;;;;;;;13.45;4.13;;;9.70;99.90;;;;;;5100822;28;20019;-73
2022/10/09 01:19:35;;;;;;;11.98;4.15;;;9.60;99.90;;;;;;5085620;28;20040;-73
2022/10/09 01:22:27;;;;;;;10.93;3.70;;;9.60;99.90;;;;;;5110621;28;20020;-73
2022/10/09 01:25:25;;;;;;;9.75;3.75;;;9.60;99.90;;;;;;5095786;28;20016;-73
2022/10/09 01:27:52;;;;;;;14.85;3.53;;;9.60;99.90;;;;;;5109392;28;20028;-72
2022/10/09 01:30:18;;;;;;;10.32;3.80;;;9.60;99.90;;;;;;5111055;28;20024;-73
2022/10/09 01:32:47;;;;;;;12.07;4.05;;;9.60;99.90;;;;;;5109168;28;20368;-73
2022/10/09 01:35:14;;;;;;;8.98;3.60;;;9.50;99.90;;;;;;5113393;28;20020;-73
2022/10/09 01:37:43;;;;;;;9.43;3.95;;;9.50;99.90;;;;;;5114894;28;20024;-72
2022/10/09 01:40:11;;;;;;;12.98;3.70;;;9.50;99.90;;;;;;5114635;28;20035;-73
2022/10/09 01:42:37;;;;;;;12.18;3.60;;;9.50;99.90;;;;;;5095656;28;20023;-72
2022/10/09 01:45:03;;;;;;;11.27;3.63;;;9.50;99.90;;;;;;5115125;28;20349;-73
2022/10/09 01:47:29;;;;;;;7.43;3.30;;;9.40;99.90;;;;;;5099744;28;20051;-73
2022/10/09 01:50:28;;;;;;;12.27;3.92;;;9.40;99.90;;;;;;5114736;28;20042;-73
2022/10/09 01:53:00;;;;;;;6.53;3.40;;;9.40;99.90;;;;;;5100469;28;20031;-73
2022/10/09 01:55:34;;;;;;;9.18;3.30;;;9.40;99.90;;;;;;5101131;28;20020;-73
2022/10/09 01:58:19;;;;;;;7.65;3.58;;;9.30;99.90;;;;;;5100502;28;20016;-73
2022/10/09 02:01:09;;;;;;;12.10;4.10;;;9.30;99.90;;;;;;5113133;28;20435;-73
2022/10/09 02:03:37;;;;;;;11.35;3.75;;;9.30;99.90;;;;;;5095917;28;20028;-73
2022/10/09 02:06:06;;;;;;;11.02;3.65;;;9.30;99.90;;;;;;5114011;28;20089;-73
2022/10/09 02:08:35;;;;;;;11.30;3.33;;;9.30;99.90;;;;;;5113231;28;20016;-73
2022/10/09 02:11:04;;;;;;;11.35;3.30;;;9.20;99.90;;;;;;5112938;28;20016;-74
2022/10/09 02:13:32;;;;;;;12.88;3.72;;;9.20;99.90;;;;;;5106291;28;20115;-73
2022/10/09 02:16:18;;;;;;;9.85;3.50;;;9.20;99.90;;;;;;5106548;28;20356;-73
2022/10/09 02:19:21;;;;;;;10.65;3.58;;;9.20;99.90;;;;;;5102546;28;20038;-73
2022/10/09 02:21:54;;;;;;;11.07;3.70;;;9.20;99.90;;;;;;5105445;28;20501;-73
2022/10/09 02:24:22;;;;;;;11.57;3.17;;;9.10;99.90;;;;;;5095380;28;20027;-73
2022/10/09 02:26:49;;;;;;;7.50;3.10;;;9.10;99.90;;;;;;5093252;28;20026;-73
2022/10/09 02:29:15;;;;;;;10.68;3.17;;;9.10;99.90;;;;;;5094939;28;20438;-72
2022/10/09 02:31:42;;;;;;;8.50;3.70;;;9.10;99.90;;;;;;5109130;28;20020;-73
2022/10/09 02:34:26;;;;;;;14.25;3.95;;;9.10;99.90;;;;;;5095043;28;20123;-73
2022/10/09 02:36:52;;;;;;;9.68;3.50;;;9.00;99.90;;;;;;5099674;28;20072;-73
2022/10/09 02:39:17;;;;;;;8.35;3.33;;;9.00;99.90;;;;;;5101665;28;20020;-73
2022/10/09 02:41:43;;;;;;;9.25;3.50;;;9.00;99.90;;;;;;5103416;28;20027;-73
2022/10/09 02:44:09;;;;;;;13.00;3.78;;;9.00;99.90;;;;;;5113294;28;20027;-73
2022/10/09 02:46:36;;;;;;;10.55;3.67;;;9.00;99.90;;;;;;5113183;28;20090;-72
2022/10/09 02:49:02;;;;;;;9.98;4.20;;;9.00;99.90;;;;;;5113838;28;20050;-73
2022/10/09 02:51:27;;;;;;;12.57;5.03;;;8.90;99.90;;;;;;5104419;28;20064;-74
2022/10/09 02:53:54;;;;;;;12.98;4.53;;;8.90;99.90;;;;;;5094190;28;20391;-73
2022/10/09 02:56:23;;;;;;;12.20;5.50;;;8.90;99.90;;;;;;5110038;28;20028;-73
2022/10/09 02:58:48;;;;;;;14.77;6.10;;;8.90;99.90;;;;;;5111364;28;20107;-73
2022/10/09 03:01:14;;;;;;;12.00;5.72;;;8.80;99.90;;;;;;5113639;28;20095;-73
2022/10/09 03:03:40;;;;;;;13.13;5.47;;;8.80;99.90;;;;;;5105026;28;20058;-74
2022/10/09 03:06:15;;;;;;;10.05;4.90;;;8.80;99.90;;;;;;5081465;28;20091;-73
2022/10/09 03:08:43;;;;;;;12.38;4.82;;;8.80;99.90;;;;;;5091852;28;20024;-73
2022/10/09 03:11:10;;;;;;;14.63;4.75;;;8.80;99.90;;;;;;5105205;28;20035;-73
2022/10/09 03:13:38;;;;;;;12.75;4.85;;;8.70;99.90;;;;;;5111755;28;20051;-73
2022/10/09 03:16:05;;;;;;;11.00;4.57;;;8.70;99.90;;;;;;5113634;28;20016;-73
2022/10/09 03:18:31;;;;;;;11.30;4.63;;;8.70;99.90;;;;;;5110800;28;20445;-73
2022/10/09 03:20:57;;;;;;;11.93;4.55;;;8.70;99.90;;;;;;5111208;28;20055;-73
2022/10/09 03:23:23;;;;;;;9.45;4.15;;;8.60;99.90;;;;;;5112284;28;20058;-74
2022/10/09 03:25:56;;;;;;;8.38;3.75;;;8.70;99.90;;;;;;5099289;28;20024;-73
2022/10/09 03:28:22;;;;;;;7.38;3.70;;;8.60;99.90;;;;;;5099157;28;20031;-73
2022/10/09 03:30:48;;;;;;;9.60;3.90;;;8.60;99.90;;;;;;5111329;28;20490;-73
2022/10/09 03:33:13;;;;;;;9.05;3.65;;;8.60;99.90;;;;;;5101048;28;20111;-73
2022/10/09 03:35:40;;;;;;;9.50;4.07;;;8.60;99.90;;;;;;5108580;28;20391;-73
2022/10/09 03:38:05;;;;;;;9.90;3.47;;;8.60;99.90;;;;;;5094133;28;20019;-73
2022/10/09 03:40:31;;;;;;;11.50;4.32;;;8.60;99.90;;;;;;5110521;28;20023;-73
2022/10/09 03:42:57;;;;;;;7.75;3.85;;;8.60;99.90;;;;;;5099365;28;20047;-73
2022/10/09 03:45:22;;;;;;;10.25;3.55;;;8.60;99.90;;;;;;5111669;28;20024;-73
2022/10/09 03:47:48;;;;;;;9.20;3.85;;;8.60;99.90;;;;;;5093761;28;20051;-73
2022/10/09 03:50:14;;;;;;;12.20;4.30;;;8.50;99.90;;;;;;5111812;28;20539;-73
2022/10/09 03:52:39;;;;;;;9.68;3.83;;;8.50;99.90;;;;;;5110969;28;20035;-73
2022/10/09 03:55:06;;;;;;;9.32;3.70;;;8.50;99.90;;;;;;5111995;28;20023;-73
2022/10/09 03:57:32;;;;;;;12.20;4.22;;;8.50;99.90;;;;;;5110975;28;20016;-73
2022/10/09 03:59:57;;;;;;;9.88;3.72;;;8.50;99.90;;;;;;5111913;28;20016;-73
2022/10/09 04:02:23;;;;;;;11.70;3.72;;;8.40;99.90;;;;;;5112108;28;20019;-73
2022/10/09 04:04:48;;;;;;;10.43;3.78;;;8.40;99.90;;;;;;5109924;28;20138;-72
2022/10/09 04:07:14;;;;;;;5.95;3.50;;;8.40;99.90;;;;;;5110857;28;20028;-73
2022/10/09 04:09:40;;;;;;;9.88;3.60;;;8.40;99.90;;;;;;5110768;28;20024;-73
2022/10/09 04:12:05;;;;;;;11.82;4.30;;;8.40;99.90;;;;;;5111994;28;20024;-73
2022/10/09 04:14:31;;;;;;;11.95;3.65;;;8.40;99.90;;;;;;5110340;28;20040;-75
2022/10/09 04:16:56;;;;;;;12.00;3.88;;;8.40;99.90;;;;;;5097019;28;20023;-73
2022/10/09 04:19:22;;;;;;;7.55;3.42;;;8.40;99.90;;;;;;5111397;28;20018;-72
2022/10/09 04:21:48;;;;;;;9.52;3.75;;;8.40;99.90;;;;;;5102192;28;20083;-73
2022/10/09 04:24:13;;;;;;;12.48;3.58;;;8.30;99.90;;;;;;5087437;28;20024;-73
2022/10/09 04:26:39;;;;;;;10.05;3.78;;;8.40;99.90;;;;;;5110994;28;20020;-73
2022/10/09 04:29:04;;;;;;;13.43;3.58;;;8.40;99.90;;;;;;5111609;28;20095;-74
2022/10/09 04:31:31;;;;;;;15.10;4.07;;;8.30;99.90;;;;;;5091730;28;20107;-73
2022/10/09 04:33:56;;;;;;;8.65;3.90;;;8.30;99.90;;;;;;5111666;28;20020;-74
2022/10/09 04:36:22;;;;;;;10.35;3.85;;;8.30;99.90;;;;;;5111060;28;20085;-72
2022/10/09 04:38:47;;;;;;;10.40;3.88;;;8.30;99.90;;;;;;5102022;28;20020;-73
2022/10/09 04:41:13;;;;;;;10.65;3.88;;;8.30;99.90;;;;;;5097619;28;20023;-73
2022/10/09 04:43:39;;;;;;;9.77;4.10;;;8.30;99.90;;;;;;5111333;28;20020;-74
2022/10/09 04:46:06;;;;;;;10.20;3.90;;;8.30;99.90;;;;;;5110465;28;20890;-73
2022/10/09 04:48:37;;;;;;;8.65;3.90;;;8.30;99.90;;;;;;5110319;28;20357;-73
2022/10/09 04:51:05;;;;;;;10.43;4.13;;;8.30;99.90;;;;;;5092556;28;20031;-73
2022/10/09 04:53:31;;;;;;;9.45;4.43;;;8.30;99.90;;;;;;5101172;28;20058;-72
2022/10/09 04:55:57;;;;;;;12.23;4.05;;;8.30;99.90;;;;;;5108312;28;20034;-72
2022/10/09 04:58:22;;;;;;;12.23;4.28;;;8.30;99.90;;;;;;5097255;28;20020;-72
2022/10/09 05:00:48;;;;;;;13.73;4.47;;;8.30;99.90;;;;;;5111209;28;20059;-74
2022/10/09 05:03:13;;;;;;;12.73;4.15;;;8.30;99.90;;;;;;5109882;28;20506;-73
2022/10/09 05:05:39;;;;;;;9.70;4.75;;;8.20;99.90;;;;;;5110813;28;20087;-73
2022/10/09 05:08:05;;;;;;;10.80;4.30;;;8.30;99.90;;;;;;5108891;28;20099;-72
2022/10/09 05:10:31;;;;;;;12.98;4.30;;;8.20;99.90;;;;;;5110892;28;20055;-73
2022/10/09 05:12:58;;;;;;;10.38;4.22;;;8.20;99.90;;;;;;5096136;28;20032;-74
2022/10/09 05:15:24;;;;;;;15.95;4.47;;;8.20;99.90;;;;;;5102653;28;20508;-73
2022/10/09 05:17:49;;;;;;;11.40;4.57;;;8.20;99.90;;;;;;5103527;28;20073;-73
2022/10/09 05:20:15;;;;;;;10.18;4.07;;;8.20;99.90;;;;;;5099841;28;20527;-73
2022/10/09 05:22:43;;;;;;;12.40;4.60;;;8.10;99.90;;;;;;5110581;28;20441;-72
2022/10/09 05:25:09;;;;;;;7.57;4.30;;;8.10;99.90;;;;;;5111099;28;20031;-73
2022/10/09 05:27:35;;;;;;;10.38;4.38;;;8.10;99.90;;;;;;5109607;28;20085;-74
2022/10/09 05:30:00;;;;;;;10.00;4.30;;;8.10;99.90;;;;;;5110386;28;20020;-74
2022/10/09 05:32:26;;;;;;;10.85;4.38;;;8.10;99.90;;;;;;5098194;28;20024;-74
2022/10/09 05:34:51;;;;;;;9.27;4.07;;;8.00;99.90;;;;;;5090173;28;20479;-72
2022/10/09 05:37:17;;;;;;;11.13;3.97;;;8.10;99.90;;;;;;5089743;28;20081;-74
2022/10/09 05:39:43;;;;;;;7.57;4.13;;;8.00;99.90;;;;;;5106706;28;20016;-74
2022/10/09 05:42:09;;;;;;;12.95;4.63;;;8.00;99.90;;;;;;5095795;28;20024;-73
2022/10/09 05:44:35;;;;;;;12.80;4.68;;;8.00;99.90;;;;;;5111027;28;20035;-73
2022/10/09 05:47:00;;;;;;;7.78;4.32;;;8.00;99.90;;;;;;5108778;28;20055;-74
2022/10/09 05:49:26;;;;;;;8.38;4.45;;;8.00;99.90;;;;;;5110021;28;20030;-73
2022/10/09 05:51:53;;;;;;;12.52;4.72;;;8.00;99.90;;;;;;5103993;28;20022;-72
2022/10/09 05:54:19;;;;;;;9.05;3.90;;;7.90;99.90;;;;;;5091191;28;20459;-74
2022/10/09 05:56:45;;;;;;;11.50;4.45;;;7.90;99.90;;;;;;5095016;28;20010;-73
2022/10/09 05:59:13;;;;;;;10.35;4.05;;;7.90;99.90;;;;;;5109464;28;20026;-73
2022/10/09 06:01:45;;;;;;;13.00;4.55;;;7.90;99.90;;;;;;5106421;28;20024;-73
2022/10/09 06:04:21;;;;;;;11.00;4.47;;;7.90;99.90;;;;;;5090334;28;20062;-73
2022/10/09 06:06:48;;;;;;;10.88;4.13;;;7.90;99.90;;;;;;5106197;28;20028;-74
2022/10/09 06:09:20;;;;;;;11.15;4.22;;;7.80;99.90;;;;;;5108451;28;20011;-73
2022/10/09 06:11:46;;;;;;;13.65;4.07;;;7.80;99.90;;;;;;5104705;28;20015;-74
2022/10/09 06:14:12;;;;;;;11.23;4.43;;;7.80;99.90;;;;;;5107589;28;20031;-74
2022/10/09 06:16:41;;;;;;;11.23;4.18;;;7.80;99.90;;;;;;5090188;28;20015;-73
2022/10/09 06:19:10;;;;;;;11.68;4.30;;;7.80;99.90;;;;;;5108096;28;20051;-74
2022/10/09 06:21:35;;;;;;;9.60;4.05;;;7.80;99.90;;;;;;5108446;28;20425;-72
2022/10/09 06:24:03;;;;;;;12.18;4.57;;;7.80;99.90;;;;;;5109226;28;20028;-73
2022/10/09 06:26:29;;;;;;;15.32;4.47;;;7.80;99.90;;;;;;5109755;28;20076;-73
2022/10/09 06:28:56;;;;;;;14.98;4.70;;;7.80;99.90;;;;;;5102769;28;20082;-73
2022/10/09 06:31:24;;;;;;;12.18;4.47;;;7.80;99.90;;;;;;5113561;28;20024;-73
2022/10/09 06:33:51;;;;;;;15.60;4.32;;;7.80;99.90;;;;;;5113656;28;20031;-73
2022/10/09 06:36:23;;;;;;;11.93;4.75;;;7.80;99.90;;;;;;5098739;28;20030;-74
2022/10/09 06:38:49;;;;;;;11.02;4.57;;;7.80;99.90;;;;;;5093809;28;20020;-73
2022/10/09 06:41:19;;;;;;;8.60;4.68;;;7.80;99.90;;;;;;5100508;28;20016;-73
2022/10/09 06:43:55;;;;;;;13.23;4.70;;;7.80;99.90;;;;;;5111552;28;20505;-73
2022/10/09 06:46:23;;;;;;;11.07;4.53;;;7.80;99.90;;;;;;5094054;28;20063;-73
2022/10/09 06:48:49;;;;;;;11.90;4.57;;;7.80;99.90;;;;;;5093662;28;20069;-73
2022/10/09 06:51:17;;;;;;;12.73;5.07;;;7.80;99.90;;;;;;5123051;27;20114;-73
2022/10/09 06:53:46;;;;;;;11.38;5.00;;;7.80;99.90;;;;;;5113203;28;20463;-74
2022/10/09 06:56:13;;;;;;;11.57;5.03;;;7.90;99.90;;;;;;5095444;28;20224;-73
2022/10/09 06:58:40;;;;;;;14.48;5.65;;;7.90;99.90;;;;;;5093968;28;20028;-73
2022/10/09 07:01:10;;;;;;;13.48;5.68;;;7.90;99.90;;;;;;5095876;28;20024;-73
2022/10/09 07:03:37;;;;;;;13.65;5.70;;;7.90;99.90;;;;;;5111888;28;20368;-73
2022/10/09 07:06:09;;;;;;;12.38;5.93;;;7.90;99.90;;;;;;5111466;28;20070;-73
2022/10/09 07:08:35;;;;;;;15.60;6.32;;;8.00;99.90;;;;;;5099243;28;20020;-73
2022/10/09 07:11:08;;;;;;;16.75;6.43;;;8.00;99.90;;;;;;5105311;28;20418;-73
2022/10/09 07:13:33;;;;;;;20.45;7.22;;;8.10;99.90;;;;;;5105406;28;20484;-72
2022/10/09 07:15:59;;;;;;;22.90;8.00;;;8.10;99.90;;;;;;5105224;28;20036;-73
2022/10/09 07:18:25;;;;;;;26.30;8.35;;;8.10;99.90;;;;;;5100481;28;20103;-73
2022/10/09 07:20:50;;;;;;;26.25;9.38;;;8.20;99.90;;;;;;5103669;28;20094;-73
2022/10/09 07:23:16;;;;;;;25.08;9.13;;;8.20;99.90;;;;;;5090653;28;20019;-74
2022/10/09 07:25:41;;;;;;;18.17;9.25;;;8.30;99.90;;;;;;5101277;28;20432;-73
2022/10/09 07:28:07;;;;;;;23.90;10.25;;;8.40;99.90;;;;;;5103357;28;20038;-73
2022/10/09 07:30:36;;;;;;;20.90;9.82;;;8.50;99.90;;;;;;5102418;28;20015;-74
2022/10/09 07:33:02;;;;;;;21.83;9.85;;;8.60;99.90;;;;;;5104417;28;20062;-73
2022/10/09 07:35:28;;;;;;;26.35;9.57;;;8.60;99.90;;;;;;5098452;28;20059;-73
2022/10/09 07:37:54;;;;;;;21.25;9.60;;;8.70;99.90;;;;;;5106537;28;20028;-73
2022/10/09 07:40:19;;;;;;;27.65;10.23;;;8.80;99.90;;;;;;5099193;28;20031;-73
2022/10/09 07:42:45;;;;;;;25.98;10.43;;;8.90;99.90;;;;;;5108717;28;20106;-73
2022/10/09 07:45:10;;;;;;;26.85;9.93;;;8.90;99.90;;;;;;5111889;28;20252;-73
2022/10/09 07:47:36;;;;;;;28.10;10.40;;;9.00;99.90;;;;;;5112173;28;20047;-73
2022/10/09 07:50:02;;;;;;;25.10;10.48;;;9.10;99.90;;;;;;5112166;28;20043;-73
2022/10/09 07:52:27;;;;;;;21.25;10.00;;;9.20;99.90;;;;;;5102305;28;20112;-73
2022/10/09 07:54:54;;;;;;;28.85;11.88;;;9.30;99.90;;;;;;5097777;28;20069;-73
2022/10/09 07:57:19;;;;;;;29.90;10.52;;;9.40;99.90;;;;;;5101239;28;20020;-73
2022/10/09 07:59:46;;;;;;;33.75;10.95;;;9.50;99.90;;;;;;5103008;28;20020;-72
2022/10/09 08:02:11;;;;;;;34.95;11.38;;;9.60;99.90;;;;;;5102188;28;20707;-73
2022/10/09 08:04:37;;;;;;;24.50;10.23;;;9.70;99.90;;;;;;5105728;28;20024;-72
2022/10/09 08:07:02;;;;;;;19.63;9.60;;;9.80;99.90;;;;;;5101869;28;20028;-73
2022/10/09 08:09:28;;;;;;;23.17;10.52;;;10.00;99.90;;;;;;5100729;28;20069;-72
2022/10/09 08:11:54;;;;;;;28.52;10.68;;;10.10;99.90;;;;;;5102203;28;20016;-73
2022/10/09 08:14:19;;;;;;;23.13;10.20;;;10.20;99.90;;;;;;5104728;28;20039;-72
2022/10/09 08:16:45;;;;;;;20.42;9.55;;;10.30;99.90;;;;;;5096379;28;20031;-73
2022/10/09 08:19:11;;;;;;;24.00;8.93;;;10.40;99.90;;;;;;5111162;28;20023;-73
2022/10/09 08:21:37;;;;;;;20.25;8.30;;;10.50;99.90;;;;;;5104749;28;20471;-73
2022/10/09 08:24:03;;;;;;;17.17;8.10;;;10.60;99.90;;;;;;5108038;28;20083;-73
2022/10/09 08:26:29;;;;;;;18.17;7.10;;;10.70;99.90;;;;;;5102669;28;20453;-73
2022/10/09 08:28:58;;;;;;;14.35;6.13;;;10.80;99.90;;;;;;5102231;28;20115;-72
2022/10/09 08:31:24;;;;;;;19.98;6.00;;;10.90;99.90;;;;;;5103237;28;20023;-73
2022/10/09 08:33:56;;;;;;;19.08;5.95;;;11.00;99.90;;;;;;5094877;28;20387;-73
2022/10/09 08:36:23;;;;;;;12.50;5.10;;;11.20;99.90;;;;;;5103615;28;20379;-73
2022/10/09 08:38:50;;;;;;;18.25;5.30;;;11.30;99.90;;;;;;5100812;28;20012;-74
2022/10/09 08:41:45;;;;;;;13.85;4.95;;;11.30;99.90;;;;;;5105890;28;20111;-73
2022/10/09 08:44:26;;;;;;;15.82;4.53;;;11.50;99.90;;;;;;5098953;28;20024;-72
2022/10/09 08:47:14;;;;;;;13.15;5.13;;;11.70;99.90;;;;;;5101614;28;20044;-71
2022/10/09 08:50:09;;;;;;;14.90;4.85;;;11.80;99.90;;;;;;5096111;28;20024;-72
2022/10/09 08:52:40;;;;;;;16.92;5.03;;;11.90;99.90;;;;;;5102593;28;20599;-74
2022/10/09 08:55:28;;;;;;;14.68;5.70;;;12.10;99.90;;;;;;5100765;28;20028;-71
2022/10/09 08:58:04;;;;;;;14.68;5.00;;;12.20;99.90;;;;;;5101673;28;20043;-70
2022/10/09 09:00:44;;;;;;;10.57;4.07;;;12.40;99.90;;;;;;5104299;28;20103;-71
2022/10/09 09:03:30;;;;;;;12.93;4.28;;;12.60;99.90;;;;;;5102937;28;20016;-71
2022/10/09 09:06:13;;;;;;;13.88;4.40;;;12.70;99.90;;;;;;5102465;28;20133;-71
2022/10/09 09:09:11;;;;;;;11.60;4.57;;;12.90;99.90;;;;;;5102415;28;20022;-72
2022/10/09 09:12:13;;;;;;;10.05;4.38;;;13.10;99.90;;;;;;4992141;28;20038;-73
2022/10/09 09:15:08;;;;;;;10.50;4.50;;;13.20;99.90;;;;;;4978124;28;20050;-73
2022/10/09 09:18:09;;;;;;;14.55;4.38;;;13.30;99.90;;;;;;4990608;28;20613;-73
2022/10/09 09:20:51;;;;;;;12.80;4.25;;;13.50;99.90;;;;;;4985362;28;20109;-72
2022/10/09 09:23:21;;;;;;;7.60;3.40;;;13.70;99.90;;;;;;5005994;28;20022;-72
2022/10/09 09:25:47;;;;;;;14.95;3.78;;;13.80;99.90;;;;;;5006634;28;20037;-72
2022/10/09 09:28:23;;;;;;;13.38;3.47;;;13.90;99.90;;;;;;5006734;28;20042;-73
2022/10/09 09:31:07;;;;;;;13.23;3.40;;;14.00;99.90;;;;;;5006184;28;20033;-70
2022/10/09 09:33:47;;;;;;;12.10;3.78;;;14.10;99.90;;;;;;5003845;28;20061;-73
2022/10/09 09:36:37;;;;;;;8.85;3.47;;;14.10;99.90;;;;;;5001706;28;20034;-72
2022/10/09 09:39:03;;;;;;;14.23;3.40;;;14.20;99.90;;;;;;5004581;28;20034;-71
2022/10/09 09:41:29;;;;;;;10.48;2.95;;;14.30;99.90;;;;;;4996005;28;20537;-72
2022/10/09 09:43:54;;;;;;;9.43;3.00;;;14.40;99.90;;;;;;5007187;28;20026;-72
2022/10/09 09:46:24;;;;;;;12.07;3.03;;;14.50;99.90;;;;;;5018397;28;20073;-72
2022/10/09 09:48:50;;;;;;;8.93;2.90;;;14.60;99.90;;;;;;5103857;28;20028;-72
2022/10/09 09:51:24;;;;;;;9.35;2.90;;;14.70;99.90;;;;;;5094988;28;20020;-71
2022/10/09 09:54:13;;;;;;;8.40;2.50;;;14.80;99.90;;;;;;5097260;28;20426;-71
2022/10/09 09:56:41;;;;;;;9.43;2.92;;;14.90;99.90;;;;;;5099642;28;20497;-73
2022/10/09 09:59:24;;;;;;;10.77;2.70;;;15.00;99.90;;;;;;5111786;28;20034;-72
2022/10/09 10:01:59;;;;;;;8.70;2.42;;;15.10;99.90;;;;;;5105297;28;20459;-72
2022/10/09 10:04:27;;;;;;;12.93;3.13;;;15.30;99.90;;;;;;5112069;28;20098;-72
2022/10/09 10:06:53;;;;;;;11.48;2.33;;;15.40;99.90;;;;;;5102481;28;20471;-72
2022/10/09 10:09:19;;;;;;;8.32;2.10;;;15.50;99.90;;;;;;5102680;28;20107;-72
2022/10/09 10:11:54;;;;;;;6.85;2.20;;;15.60;99.90;;;;;;5113460;28;20008;-72
2022/10/09 10:14:19;;;;;;;7.37;2.37;;;15.70;99.90;;;;;;5100670;28;20486;-72
2022/10/09 10:16:49;;;;;;;9.82;2.53;;;15.80;99.90;;;;;;5092883;28;20024;-72
2022/10/09 10:19:24;;;;;;;10.63;2.03;;;15.80;99.90;;;;;;5107786;28;20421;-72
2022/10/09 10:22:23;;;;;;;10.85;2.05;;;15.90;99.90;;;;;;5109332;28;20050;-72
2022/10/09 10:24:52;;;;;;;8.75;2.45;;;16.00;99.90;;;;;;5081299;28;20199;-72
2022/10/09 10:27:33;;;;;;;13.40;2.60;;;16.00;99.90;;;;;;5107471;28;20020;-72
2022/10/09 10:30:03;;;;;;;7.95;2.20;;;16.00;99.90;;;;;;5103700;28;20033;-72
2022/10/09 10:32:49;;;;;;;7.05;2.00;;;16.00;99.90;;;;;;5094497;28;20028;-73
2022/10/09 10:35:22;;;;;;;8.23;2.15;;;16.00;99.90;;;;;;5106287;28;20127;-72
2022/10/09 10:38:00;;;;;;;5.78;1.90;;;16.10;99.90;;;;;;5108303;28;20111;-75
2022/10/09 10:40:42;;;;;;;9.63;2.10;;;16.10;99.90;;;;;;5111678;28;20399;-72
2022/10/09 10:43:14;;;;;;;9.07;2.30;;;16.20;99.90;;;;;;5106128;28;20093;-72
2022/10/09 10:45:58;;;;;;;6.35;1.80;;;16.20;99.90;;;;;;5102229;28;20020;-72
2022/10/09 10:48:46;;;;;;;8.80;2.00;;;16.30;99.90;;;;;;5101962;28;20057;-72
2022/10/09 10:51:26;;;;;;;5.55;2.13;;;16.30;99.90;;;;;;5100020;28;20028;-73
2022/10/09 10:54:00;;;;;;;11.98;2.47;;;16.40;99.90;;;;;;5112464;28;20483;-72
2022/10/09 10:56:28;;;;;;;8.52;2.30;;;16.60;99.90;;;;;;5106975;28;20028;-72
2022/10/09 10:59:18;;;;;;;8.55;2.08;;;16.70;99.90;;;;;;5095083;28;20035;-72
2022/10/09 11:02:02;;;;;;;6.97;1.98;;;16.80;99.90;;;;;;5092728;28;20028;-72
2022/10/09 11:04:53;;;;;;;11.15;2.70;;;16.80;99.90;;;;;;5091625;28;20028;-71
2022/10/09 11:07:35;;;;;;;9.48;2.45;;;16.90;99.90;;;;;;5103767;28;20026;-73
2022/10/09 11:10:14;;;;;;;8.20;2.42;;;17.00;99.90;;;;;;5097784;28;20024;-71
2022/10/09 11:13:03;;;;;;;10.15;2.15;;;16.90;99.90;;;;;;5099228;28;20020;-72
2022/10/09 11:15:50;;;;;;;7.28;2.05;;;17.00;99.90;;;;;;5079081;28;20396;-73
2022/10/09 11:18:31;;;;;;;7.03;2.22;;;17.00;99.90;;;;;;5108622;28;20028;-73
2022/10/09 11:21:16;;;;;;;8.00;2.20;;;17.00;99.90;;;;;;5098569;28;20563;-72
2022/10/09 11:24:06;;;;;;;6.38;2.22;;;17.10;99.90;;;;;;5104539;28;20023;-72
2022/10/09 11:26:45;;;;;;;7.18;2.00;;;17.10;99.90;;;;;;5099121;28;20107;-72
2022/10/09 11:29:36;;;;;;;8.15;2.25;;;17.20;99.90;;;;;;5082996;28;20032;-72
2022/10/09 11:32:20;;;;;;;10.23;2.50;;;17.20;99.90;;;;;;5109081;28;20065;-75
2022/10/09 11:35:13;;;;;;;17.83;2.70;;;17.30;99.90;;;;;;5108847;28;20028;-75
2022/10/09 11:37:42;;;;;;;6.80;1.98;;;17.40;99.90;;;;;;5101416;28;20032;-74
2022/10/09 11:40:21;;;;;;;9.35;2.50;;;17.40;99.90;;;;;;5095122;28;20503;-74
2022/10/09 11:43:10;;;;;;;7.93;2.33;;;17.50;99.90;;;;;;5112082;28;20028;-75
2022/10/09 11:45:47;;;;;;;9.82;2.38;;;17.60;99.90;;;;;;5111892;28;20073;-75
2022/10/09 11:48:45;;;;;;;7.25;2.15;;;17.70;99.90;;;;;;5112438;28;20047;-74
2022/10/09 11:51:18;;;;;;;8.68;2.00;;;17.80;99.90;;;;;;5091746;28;20054;-75
2022/10/09 11:53:44;;;;;;;5.82;2.05;;;17.80;99.80;;;;;;5103273;28;20486;-74
2022/10/09 11:56:22;;;;;;;8.40;2.50;;;17.80;99.40;;;;;;5097162;28;20072;-74
2022/10/09 11:59:00;;;;;;;7.15;1.70;;;17.90;98.80;;;;;;5111275;28;20096;-75
2022/10/09 12:01:36;;;;;;;6.88;1.98;;;18.00;98.50;;;;;;5113525;28;20024;-74
2022/10/09 12:04:07;;;;;;;6.57;2.20;;;18.00;97.60;;;;;;5111527;28;20038;-74
2022/10/09 12:06:54;;;;;;;8.05;2.05;;;18.00;97.80;;;;;;5109190;28;20034;-74
2022/10/09 12:09:33;;;;;;;7.65;1.75;;;18.10;97.40;;;;;;5102550;28;20106;-74
2022/10/09 12:12:19;;;;;;;5.53;1.83;;;18.20;97.50;;;;;;5104089;28;20028;-74
2022/10/09 12:14:47;;;;;;;5.18;2.20;;;18.20;96.70;;;;;;5104339;28;20020;-74
2022/10/09 12:17:29;;;;;;;9.35;2.45;;;18.20;96.60;;;;;;5100206;28;20031;-74
2022/10/09 12:20:06;;;;;;;7.28;2.00;;;18.30;96.40;;;;;;5103099;28;20488;-74
2022/10/09 12:22:38;;;;;;;6.18;2.05;;;18.30;96.00;;;;;;5105176;28;20108;-74
2022/10/09 12:25:29;;;;;;;7.68;2.70;;;18.40;95.80;;;;;;5111492;28;20050;-74
2022/10/09 12:27:57;;;;;;;7.60;2.35;;;18.40;95.20;;;;;;5110445;28;20027;-74
2022/10/09 12:30:30;;;;;;;8.50;2.42;;;18.40;95.00;;;;;;5101865;28;20068;-74
2022/10/09 12:33:21;;;;;;;12.15;2.33;;;18.50;94.90;;;;;;5104614;28;20035;-73
2022/10/09 12:36:19;;;;;;;6.15;2.10;;;18.50;94.70;;;;;;5102956;28;20031;-73
2022/10/09 12:38:44;;;;;;;4.35;2.00;;;18.50;94.30;;;;;;5097828;28;20085;-74
2022/10/09 12:41:22;;;;;;;5.78;1.90;;;18.50;94.50;;;;;;5078967;28;20024;-74
2022/10/09 12:43:50;;;;;;;6.82;1.90;;;18.50;93.60;;;;;;5087815;28;20080;-74
2022/10/09 12:46:36;;;;;;;8.55;2.35;;;18.50;93.70;;;;;;5103457;28;20150;-74
2022/10/09 12:49:07;;;;;;;9.82;2.20;;;18.50;92.80;;;;;;5089823;28;20026;-74
2022/10/09 12:51:33;;;;;;;6.18;2.10;;;18.50;92.80;;;;;;5105250;28;20078;-73
2022/10/09 12:54:06;;;;;;;5.63;2.00;;;18.50;92.80;;;;;;5099181;28;20043;-74
2022/10/09 12:56:37;;;;;;;10.52;2.30;;;18.50;92.70;;;;;;5097295;28;20036;-74
2022/10/09 12:59:03;;;;;;;4.50;1.83;;;18.50;92.90;;;;;;5091797;28;20032;-74
2022/10/09 13:01:29;;;;;;;5.93;2.15;;;18.60;92.70;;;;;;5105122;28;20024;-74
2022/10/09 13:03:56;;;;;;;8.25;2.03;;;18.60;92.30;;;;;;5092257;28;20084;-74
2022/10/09 13:06:26;;;;;;;8.48;2.30;;;18.60;92.50;;;;;;5103965;28;20012;-74
2022/10/09 13:09:06;;;;;;;9.75;1.80;;;18.70;92.50;;;;;;5097834;28;20024;-74